General Aviation Weather

Text Reports

Enter one or more of the following location identifiers separated by a space:

Zip Code, Four-Character ICAO or Three-Character IATA airport codes.

METAR - Aviation Routine Weather Report
KSET - St. Charles, Missouri
Updated at 5:54 PM GMT on July 29, 2014 (12:54 PM CDT):
METAR KSET 291754Z AUTO 33005KT 10SM CLR 25/13 A3013 RMK AO1 SLP201 T02500128 10250 20122 58004
TAF - Terminal Area Forecast
KSET - St. Charles, Missouri
Updated at 5:54 PM GMT on July 29, 2014 (12:54 PM CDT):
No TAF is currently available for this location.
Decoded:
No decoded TAF is available.
PIREP - Pilot Weather Report
KSET - St. Charles, Missouri
Updated at 5:54 PM GMT on July 29, 2014 (12:54 PM CDT):
No PIREP is currently available for this location.
AIRMET - Airmens Meteorological Information
KSET - St. Charles, Missouri
Updated at 5:54 PM GMT on July 29, 2014 (12:54 PM CDT):
No AIRMET is currently available for this location.
SIGMET - Significant Meteorological Information
KSET - St. Charles, Missouri
Updated at 5:54 PM GMT on July 29, 2014 (12:54 PM CDT):
No SIGMET is currently available for this location.
NOTAM - Notice to Airmen
KSET - St. Charles, Missouri
Updated at 5:54 PM GMT on July 29, 2014 (12:54 PM CDT):
No NOTAM is currently available for this location.
Forecast Area
KSET - St. Charles, Missouri
Updated at 5:54 PM GMT on July 29, 2014 (12:54 PM CDT):
No NOTAM is currently available for this location.
Aviation Weather Maps